Demo 6

Misión y Visión

La misión es proporcionar información fiable a la navegación aérea, contribuyendo a la seguridad, regularidad y eficiencia de la Navegación Aérea Internacional

La visión es contribuir sustancialmente al desarrollo de conocimientos y a la utilización de la meteorología aeronáutica a nivel nacional e internacional, mediante la innovación y la coparticipación con sectores sociales y productivos de la sociedad.

 
  Inicio
  Metar
  Taf
  Wintemp
  SIGMET
  Avisos
  Pronósticos
  Carpeta Meteorologica
  Imágenes Satelitales
  Climatología Aeronáutica
   
  ¿Quienes Somos?
  Contacto
  Eventos



DIRECCIONES PARA INFORMES NACIONALES E INTERNACIONALES
(Metar /Speci - TAF)



http://adds.aviationweather.gov/tafs/index.php

http://www.ogimet.com/metars.phtml



PRONÓSTICOS DE AERÓDROMO

Cuando sea necesario, el encabezamiento abreviado puede incluir un cuarto grupo consistente en tres letras para identificar los boletines demorados (RRA), corregidos(CCA) o enmendados (AAA). Los boletines adicionales demorados, corregidos o enmendados deben identificarse con las letras RRB, RRC, etc.; CCB, CCC,etc.;AAB, AAC,etc.



ESTACIONES DESCRIPCION
MPTO (M) 211800Z 16004KT 9000 SCT018TCU 34/26 Q1009 NOSIG RMK TCU NW-N HZ ALQDS =  
MPBO (M) 211400Z 25006KT 9000 TSVCSH FEW010CB SCT015 OVC070 25/25 Q1011 RERA RMK TS OHD PCPN ALQDS=  
MPCH (M) 211400Z 27004KT 9000 -RA SCT020CB OVC060 ///// Q1012 RMK CB NE=  
MPSA (M) 211800Z 06002KT 9999 FEW010 SCT025 33/26 Q1009=  
MPCE (M) 211400Z 31010KT 9999 SCT020 ///// Q1008=  
MPPN (M) =  
MPSM (M)=  
MPJE (M) =  
MPPA (M) 211800Z 18004KT 9999 SCT018 31/26 Q1008=  
MPMG (M) 211800Z 32007KT 9000 SCT018TCU 32/26 Q1009 NOSIG RMK TCU NW-NE HZ ALQDS=  
MPDA (M) 211800Z 16005KT 9999 SCT013TCU BKN100 30/25 Q1008 NOSIG RMK TCU W=  
MPVR (M) =  
MPWN (M) FUERA DE SERVICIO  
MPOA (M) =  
MPMF (M) =  
MPEJ (M) 211700Z 33010KT 9999 SCT020 31/// Q1012=  


CLIMATOLOGIA AERONAUTICA

EL DIA INICIA A LAS 00:00 UTC

19:00 HORA LOCAL 07:00 pm HORA LEGAL LOCAL

CLIMATICA MPMG 20/07/2024

MARCOS A.GELABERT LABORA (06:00 A.M. A 10:00 PM.)

 

       

 

PCPN

(MM)

T°C MÁX.

 

T°C MIN.

 

VIENTO MAX

(KT)

HORA

VIENTO MAX

VIENTO

PRED.

31.2

31.9

24.9

30017KT 1900Z WNW 08KT
         

 

 

 

 

 

CLIMATICA MPTO  20/07/2024

TOCUMEN HORARIO 24 horas

 

       

 

PCPN

(MM)

T°C MÁX.

 

T°C MÍN.

 

VIENTO MAX

(KT)

HORA

VIENTO MAX

VIENTO

PRED.

0.0

33.2

23.8

22008KT

2300Z

VRB 02KT

CLIMATICA MPPA 19/07/2024

PANAMÁ PACÍFICO LABORA (06:00AM A 10:00PM)

NO OFRECE REGISTRO DE PRECIPITACIÓN

 

       

 

PCPN

(MM)

T°C MÁX.

 

T°C MÍN.

 

VIENTO MAX

(KT)

HORA

VIENTO MAX

VIENTO

PRED.

//

//

//

14003KT

1600Z

CALMO

           

 

CLIMATICA MPDA 20/07/2024

 

ENRIQUE MALEK de 06:00AM a 10:00PM

 

       

VIENTO

       PRED

 

PCPN

(MM)

T°C MÁX.

 

T°C MÍN.

 

VIENTO MAX

(KT)

HORA

VIENTO MAX

   SW 04KT
      0.40

 30.4

24.4

       20010KT

1800Z

         

 

 
 

Fatal error: Uncaught Error: Class 'htmlsql' not found in C:\Apache24\htdocs\met\meteorologia-metar.php:391 Stack trace: #0 {main} thrown in C:\Apache24\htdocs\met\meteorologia-metar.php on line 391